Time;durP1;ratioP1;P1;durP2;ratioP2;P2;SDS_P1;SDS_P2;PMS_P1;PMS_P2;Temp;Humidity;BMP_temperature;BMP_pressure;BME280_temperature;BME280_humidity;BME280_pressure;Samples;Min_cycle;Max_cycle;Signal;HPM_P1;HPM_P2
2022/02/17 00:01:32;;;;;;;88.90;47.50;;;;;;;4.96;74.36;100025.56;5049096;28;20056;-23
2022/02/17 00:03:57;;;;;;;87.85;45.63;;;;;;;5.04;74.38;100028.13;5049730;28;20033;-21
2022/02/17 00:06:23;;;;;;;82.45;44.92;;;;;;;4.89;74.17;100016.75;5049739;28;20098;-21
2022/02/17 00:08:48;;;;;;;91.53;47.78;;;;;;;4.41;76.14;100028.47;5048841;28;20051;-21
2022/02/17 00:11:14;;;;;;;88.65;46.55;;;;;;;4.20;76.88;100020.41;5049299;28;20048;-21
2022/02/17 00:13:39;;;;;;;91.15;49.22;;;;;;;3.88;77.88;100024.91;5049053;28;20037;-21
2022/02/17 00:16:05;;;;;;;94.55;50.72;;;;;;;4.33;76.36;100010.06;5029858;28;20045;-21
2022/02/17 00:18:30;;;;;;;95.72;51.92;;;;;;;4.31;75.82;100008.56;5048874;28;20369;-21
2022/02/17 00:20:56;;;;;;;91.15;50.35;;;;;;;4.03;77.25;100001.25;5049272;28;20040;-22
2022/02/17 00:23:22;;;;;;;100.28;52.60;;;;;;;3.96;77.80;99995.88;5031077;28;20082;-21
2022/02/17 00:25:47;;;;;;;96.50;53.90;;;;;;;3.94;77.78;99997.88;5049045;28;20043;-22
2022/02/17 00:28:13;;;;;;;103.68;53.70;;;;;;;3.81;78.43;99984.44;5049211;28;21074;-21
2022/02/17 00:30:38;;;;;;;98.13;52.03;;;;;;;3.80;78.80;99999.44;5030375;28;20037;-20
2022/02/17 00:33:04;;;;;;;99.20;54.30;;;;;;;3.76;78.43;99989.41;5031317;28;20116;-22
2022/02/17 00:35:32;;;;;;;101.85;53.35;;;;;;;3.94;77.94;100005.78;5048826;28;20040;-21
2022/02/17 00:37:58;;;;;;;104.38;53.70;;;;;;;3.78;78.20;99984.78;5048786;28;20485;-22
2022/02/17 00:40:23;;;;;;;111.15;54.88;;;;;;;4.35;76.54;100001.94;5048537;28;20044;-21
2022/02/17 00:42:49;;;;;;;108.68;54.35;;;;;;;4.20;76.17;99994.00;5030508;28;20439;-21
2022/02/17 00:45:15;;;;;;;103.10;54.65;;;;;;;3.90;77.47;99980.72;5048261;28;20037;-21
2022/02/17 00:47:40;;;;;;;102.90;56.25;;;;;;;3.72;78.27;99977.56;5048310;28;20484;-30
2022/02/17 00:50:06;;;;;;;136.00;72.05;;;;;;;3.48;78.88;99963.56;5030537;28;20570;-21
2022/02/17 00:52:31;;;;;;;286.63;136.93;;;;;;;3.79;79.13;99976.69;5048132;28;20033;-21
2022/02/17 00:54:57;;;;;;;166.82;83.03;;;;;;;4.37;75.47;99974.38;5048382;28;20040;-21
2022/02/17 00:57:22;;;;;;;125.85;66.03;;;;;;;4.57;74.61;99968.53;5048231;28;20033;-21
2022/02/17 00:59:48;;;;;;;115.88;59.90;;;;;;;4.22;74.32;99966.41;5048055;28;20059;-21
2022/02/17 01:02:13;;;;;;;123.63;67.50;;;;;;;3.98;75.02;99972.75;5048239;28;20094;-21
2022/02/17 01:04:39;;;;;;;143.82;78.70;;;;;;;3.79;76.54;99968.78;5048008;28;20045;-21
2022/02/17 01:07:04;;;;;;;176.18;93.20;;;;;;;3.75;76.54;99961.41;5048170;28;20032;-21
2022/02/17 01:09:30;;;;;;;110.93;58.67;;;;;;;4.32;74.89;99981.19;5048007;28;20029;-21
2022/02/17 01:11:55;;;;;;;112.28;59.13;;;;;;;3.76;75.04;99948.03;5048072;28;20083;-21
2022/02/17 01:14:20;;;;;;;111.35;59.45;;;;;;;4.28;74.17;99972.81;5047996;28;20429;-21
2022/02/17 01:16:46;;;;;;;111.13;58.10;;;;;;;4.32;72.98;99971.44;5048070;28;20104;-21
2022/02/17 01:19:12;;;;;;;106.68;57.72;;;;;;;4.17;72.79;99973.25;5047758;28;20161;-21
2022/02/17 01:21:38;;;;;;;114.22;58.58;;;;;;;3.77;73.32;99948.84;5048072;28;20029;-21
2022/02/17 01:24:03;;;;;;;115.65;59.95;;;;;;;3.77;74.54;99973.41;5047724;28;20049;-21
2022/02/17 01:26:29;;;;;;;108.57;59.33;;;;;;;3.49;76.11;99967.81;5047466;28;20090;-22
2022/02/17 01:28:54;;;;;;;109.07;57.15;;;;;;;3.46;75.84;99975.28;5047193;28;20033;-22
2022/02/17 01:31:20;;;;;;;107.63;53.47;;;;;;;3.17;74.43;99974.13;5048144;28;20040;-21
2022/02/17 01:33:46;;;;;;;97.55;49.80;;;;;;;2.52;77.27;99967.31;5047822;28;20094;-21
2022/02/17 01:36:11;;;;;;;102.80;51.25;;;;;;;2.48;78.69;99973.91;5047482;28;20060;-21
2022/02/17 01:38:37;;;;;;;105.57;55.63;;;;;;;2.31;79.40;99958.16;5047403;28;20024;-21
2022/02/17 01:41:03;;;;;;;113.07;58.75;;;;;;;2.12;82.24;99926.94;5047422;28;20102;-21
2022/02/17 01:43:29;;;;;;;123.07;61.83;;;;;;;2.45;82.72;99955.81;5047362;28;20025;-21
2022/02/17 01:45:54;;;;;;;119.47;59.67;;;;;;;2.53;81.57;99966.31;5047628;28;20454;-21
2022/02/17 01:48:21;;;;;;;119.25;59.25;;;;;;;2.26;83.07;99957.00;5013319;28;20036;-22
2022/02/17 01:50:46;;;;;;;119.10;58.90;;;;;;;2.09;84.54;99956.22;5047338;28;20041;-21
2022/02/17 01:53:12;;;;;;;113.72;57.92;;;;;;;2.01;84.64;99949.97;5047428;28;20043;-21
2022/02/17 01:55:38;;;;;;;121.35;61.95;;;;;;;2.18;84.50;99963.09;5013143;28;20040;-21
2022/02/17 01:58:04;;;;;;;127.10;60.97;;;;;;;2.60;82.46;99959.41;5047045;28;20096;-21
2022/02/17 02:00:30;;;;;;;120.30;62.40;;;;;;;2.52;80.86;99941.00;5047086;28;20144;-21
2022/02/17 02:02:55;;;;;;;107.85;58.60;;;;;;;2.92;78.28;99952.34;5047914;28;20028;-21
2022/02/17 02:05:21;;;;;;;117.22;61.58;;;;;;;2.84;77.90;99953.22;5047475;28;20036;-21
2022/02/17 02:07:47;;;;;;;132.00;63.85;;;;;;;2.88;77.58;99951.03;5047370;28;20033;-21
2022/02/17 02:10:12;;;;;;;125.13;63.05;;;;;;;2.80;77.25;99955.38;5047441;28;20091;-22
2022/02/17 02:12:37;;;;;;;117.72;62.13;;;;;;;2.45;78.51;99940.81;5012907;28;20377;-21
2022/02/17 02:15:04;;;;;;;123.22;64.53;;;;;;;2.42;79.51;99941.19;5047750;28;20036;-21
2022/02/17 02:17:30;;;;;;;125.07;62.63;;;;;;;2.52;78.14;99920.75;5047387;28;20056;-21
2022/02/17 02:19:57;;;;;;;114.72;61.17;;;;;;;2.67;78.08;99943.72;5047020;28;20586;-21
2022/02/17 02:22:26;;;;;;;111.07;60.33;;;;;;;2.98;76.85;99936.69;5013057;28;20033;-21
2022/02/17 02:24:52;;;;;;;122.88;63.17;;;;;;;3.22;75.41;99919.91;5046994;28;20037;-21
2022/02/17 02:27:17;;;;;;;114.45;57.55;;;;;;;3.14;75.28;99909.41;5046910;28;20033;-21
2022/02/17 02:29:43;;;;;;;111.68;59.22;;;;;;;3.36;73.84;99909.63;5047304;28;20040;-21
2022/02/17 02:32:09;;;;;;;99.78;57.40;;;;;;;3.05;74.71;99921.00;5047128;28;20029;-21
2022/02/17 02:34:35;;;;;;;111.70;58.45;;;;;;;3.28;74.04;99925.47;5046976;28;20029;-21
2022/02/17 02:37:02;;;;;;;104.68;57.75;;;;;;;3.35;73.57;99918.50;5046965;28;20037;-22
2022/02/17 02:39:28;;;;;;;105.70;58.17;;;;;;;2.58;75.75;99924.53;5047989;28;20031;-22
2022/02/17 02:41:53;;;;;;;105.05;56.88;;;;;;;2.85;75.25;99930.34;5050957;28;20044;-21
2022/02/17 02:44:19;;;;;;;105.07;56.15;;;;;;;3.27;73.02;99915.91;5051389;28;20764;-21
2022/02/17 02:46:44;;;;;;;114.13;61.25;;;;;;;3.36;74.00;99920.16;5050966;28;20048;-21
2022/02/17 02:49:10;;;;;;;115.15;62.05;;;;;;;2.97;75.92;99918.41;5050790;28;20492;-21
2022/02/17 02:51:35;;;;;;;115.30;61.47;;;;;;;3.18;75.44;99921.25;5050664;28;20040;-21
2022/02/17 02:54:01;;;;;;;130.25;63.35;;;;;;;3.46;74.28;99922.56;5050655;28;20040;-22
2022/02/17 02:56:26;;;;;;;130.23;64.97;;;;;;;3.41;73.94;99925.72;5050130;28;20583;-21
2022/02/17 02:58:52;;;;;;;109.18;57.75;;;;;;;2.61;75.59;99921.53;5050803;28;20134;-22
2022/02/17 03:01:20;;;;;;;101.78;54.25;;;;;;;2.00;76.38;99911.50;5050521;28;20702;-21
2022/02/17 03:03:49;;;;;;;100.75;54.92;;;;;;;1.52;77.34;99915.81;5050796;28;20037;-21
2022/02/17 03:06:15;;;;;;;103.63;55.88;;;;;;;1.43;77.84;99908.91;5050391;28;20041;-21
2022/02/17 03:08:41;;;;;;;103.45;55.80;;;;;;;2.03;76.32;99910.34;5032103;28;20025;-21
2022/02/17 03:11:06;;;;;;;113.03;60.60;;;;;;;2.59;75.73;99915.63;5050041;28;20405;-21
2022/02/17 03:13:33;;;;;;;108.15;57.75;;;;;;;2.76;74.52;99911.94;5050221;28;20139;-22
2022/02/17 03:15:58;;;;;;;106.15;59.85;;;;;;;3.14;73.30;99909.41;5032383;28;20033;-22
2022/02/17 03:18:24;;;;;;;137.10;73.22;;;;;;;2.97;73.50;99927.13;5031953;28;20033;-22
2022/02/17 03:20:49;;;;;;;151.18;78.43;;;;;;;3.03;73.21;99923.00;5050196;28;20036;-21
2022/02/17 03:23:15;;;;;;;134.32;71.97;;;;;;;3.02;73.56;99918.69;5050732;28;20040;-21
2022/02/17 03:25:40;;;;;;;478.42;293.38;;;;;;;2.99;73.68;99930.41;5049800;28;20025;-22
2022/02/17 03:28:06;;;;;;;258.52;149.30;;;;;;;2.57;76.08;99934.19;5050516;28;20111;-21
2022/02/17 03:30:31;;;;;;;267.90;148.35;;;;;;;2.61;74.95;99908.38;5049769;28;20025;-21
2022/02/17 03:32:57;;;;;;;267.75;150.57;;;;;;;2.62;75.32;99910.03;5032096;28;20072;-21
2022/02/17 03:35:23;;;;;;;151.70;86.18;;;;;;;2.50;76.12;99929.81;5049831;28;20127;-21
2022/02/17 03:37:48;;;;;;;116.82;62.50;;;;;;;2.85;74.19;99910.06;5049982;28;20037;-21
2022/02/17 03:40:14;;;;;;;102.47;56.25;;;;;;;2.54;74.58;99912.69;5031506;28;20040;-21
2022/02/17 03:42:40;;;;;;;99.82;53.67;;;;;;;2.73;74.38;99912.25;5049719;28;20037;-22
2022/02/17 03:45:06;;;;;;;92.45;51.50;;;;;;;2.53;74.78;99911.03;5049734;28;20033;-21
2022/02/17 03:47:32;;;;;;;99.70;54.13;;;;;;;2.94;73.50;99924.84;5049721;28;20029;-22
2022/02/17 03:49:57;;;;;;;109.68;59.25;;;;;;;3.22;72.22;99917.25;5049441;28;20029;-21
2022/02/17 03:52:23;;;;;;;225.85;131.48;;;;;;;2.40;73.79;99922.91;5049549;28;20561;-21
2022/02/17 03:54:48;;;;;;;144.10;79.15;;;;;;;1.76;76.18;99903.66;5049154;28;20323;-21
2022/02/17 03:57:14;;;;;;;130.45;78.00;;;;;;;1.52;77.40;99897.41;5049706;28;20102;-21
2022/02/17 03:59:39;;;;;;;114.60;61.80;;;;;;;2.08;76.57;99909.84;5049521;28;20060;-21
2022/02/17 04:02:05;;;;;;;99.07;52.10;;;;;;;2.30;74.91;99900.44;5049668;28;20048;-21
2022/02/17 04:04:30;;;;;;;98.45;52.92;;;;;;;2.44;73.73;99896.28;5049144;28;20079;-21
2022/02/17 04:06:55;;;;;;;92.95;50.63;;;;;;;2.46;73.96;99883.75;5049528;28;20048;-22
2022/02/17 04:09:21;;;;;;;87.40;47.50;;;;;;;2.27;75.22;99882.31;5049430;28;20025;-22
2022/02/17 04:11:46;;;;;;;92.78;50.63;;;;;;;2.14;75.30;99886.31;5049433;28;20029;-21
2022/02/17 04:14:12;;;;;;;97.18;49.00;;;;;;;1.47;75.91;99868.19;5049324;28;20032;-21
2022/02/17 04:16:37;;;;;;;94.43;48.17;;;;;;;0.79;78.17;99885.78;5049022;28;20451;-21
2022/02/17 04:19:03;;;;;;;97.50;52.13;;;;;;;0.75;78.41;99868.72;5031077;28;20033;-21
2022/02/17 04:21:28;;;;;;;108.45;57.50;;;;;;;0.63;80.07;99893.63;5049161;28;20489;-21
2022/02/17 04:23:54;;;;;;;104.72;54.85;;;;;;;0.93;79.02;99887.00;5048752;28;20033;-21
2022/02/17 04:26:20;;;;;;;106.78;57.90;;;;;;;0.66;78.64;99859.19;5031168;28;20029;-21
2022/02/17 04:28:45;;;;;;;98.15;52.03;;;;;;;1.06;77.04;99885.69;5047884;28;20511;-22
2022/02/17 04:31:11;;;;;;;101.22;52.42;;;;;;;0.45;77.69;99871.91;5013241;28;20029;-22
2022/02/17 04:33:37;;;;;;;103.07;52.80;;;;;;;0.10;78.32;99874.56;5030950;28;20017;-21
2022/02/17 04:36:03;;;;;;;115.57;54.35;;;;;;;-0.45;78.77;99894.00;5030802;28;20112;-21
2022/02/17 04:38:29;;;;;;;97.82;50.53;;;;;;;-0.96;80.81;99900.75;5048240;28;20043;-21
2022/02/17 04:43:38;;;;;;;192.10;52.85;;;;;;;-0.17;82.90;99904.34;5048982;28;20499;-21
2022/02/17 04:46:04;;;;;;;170.63;54.00;;;;;;;0.15;83.17;99897.69;5048607;28;20032;-22
2022/02/17 04:48:30;;;;;;;138.88;53.65;;;;;;;-0.13;82.42;99895.19;5048363;28;20025;-21
2022/02/17 04:50:56;;;;;;;150.60;58.17;;;;;;;-0.02;82.92;99912.47;5030879;28;20044;-22
2022/02/17 04:53:21;;;;;;;107.82;50.08;;;;;;;0.38;82.11;99906.63;5030520;28;20067;-21
2022/02/17 04:55:47;;;;;;;101.90;54.55;;;;;;;0.93;79.89;99896.69;5048539;28;20848;-21
2022/02/17 04:58:12;;;;;;;105.00;54.10;;;;;;;1.37;78.75;99913.00;5048522;28;20083;-21
2022/02/17 05:00:38;;;;;;;109.82;57.78;;;;;;;1.60;78.16;99900.03;5029830;28;20638;-21
2022/02/17 05:03:04;;;;;;;114.00;57.75;;;;;;;1.36;79.32;99892.16;5047504;28;20506;-21
2022/02/17 05:05:29;;;;;;;113.32;57.08;;;;;;;1.27;80.68;99885.22;5030116;28;20029;-21
2022/02/17 05:07:54;;;;;;;141.40;74.07;;;;;;;1.18;82.23;99879.97;5048547;28;20037;-21
2022/02/17 05:10:20;;;;;;;118.40;60.47;;;;;;;1.34;81.87;99873.09;5048645;28;20603;-22
2022/02/17 05:12:45;;;;;;;143.85;69.20;;;;;;;1.20;79.92;99874.56;5047945;28;20235;-21
2022/02/17 05:15:11;;;;;;;143.18;68.90;;;;;;;0.65;79.53;99877.72;5048029;28;20037;-21
2022/02/17 05:17:36;;;;;;;120.68;61.63;;;;;;;0.28;80.09;99861.34;5030201;28;20178;-21
2022/02/17 05:20:02;;;;;;;106.88;57.90;;;;;;;0.40;80.97;99870.56;5047593;28;20037;-21
2022/02/17 05:22:27;;;;;;;109.45;59.03;;;;;;;1.16;79.45;99858.28;5029655;28;20039;-21
2022/02/17 05:24:53;;;;;;;139.02;72.45;;;;;;;1.44;78.03;99867.69;5047830;28;20036;-21
2022/02/17 05:27:18;;;;;;;146.25;78.72;;;;;;;1.84;77.67;99864.22;5047967;28;20021;-21
2022/02/17 05:29:44;;;;;;;120.32;66.85;;;;;;;1.96;77.17;99868.13;5047808;28;20068;-24
2022/02/17 05:32:09;;;;;;;119.93;63.00;;;;;;;2.11;75.76;99859.53;5047836;28;20416;-21
2022/02/17 05:34:35;;;;;;;94.97;53.45;;;;;;;1.84;76.65;99874.72;5047528;28;20033;-21
2022/02/17 05:37:01;;;;;;;102.20;54.90;;;;;;;1.58;78.53;99867.03;5029903;28;20028;-21
2022/02/17 05:39:27;;;;;;;98.43;55.47;;;;;;;1.84;77.48;99856.31;5047628;28;20036;-21
2022/02/17 05:41:53;;;;;;;107.28;53.13;;;;;;;2.03;77.09;99856.94;5047583;28;20033;-22
2022/02/17 05:44:18;;;;;;;98.28;50.78;;;;;;;1.76;78.52;99870.28;5047661;28;20060;-21
2022/02/17 05:46:43;;;;;;;103.57;54.75;;;;;;;2.11;78.51;99870.06;5047321;28;20801;-22
2022/02/17 05:49:09;;;;;;;104.47;57.03;;;;;;;2.06;76.95;99861.84;5047556;28;20032;-21
2022/02/17 05:51:34;;;;;;;114.32;62.33;;;;;;;2.18;76.39;99839.44;5047356;28;20122;-21
2022/02/17 05:54:00;;;;;;;126.57;64.53;;;;;;;2.18;76.95;99865.75;5047724;28;20044;-21
2022/02/17 05:56:25;;;;;;;145.10;73.13;;;;;;;2.53;75.83;99868.91;5029459;28;20405;-21
2022/02/17 05:58:51;;;;;;;129.85;66.45;;;;;;;2.61;75.76;99860.97;5047502;28;20045;-21
2022/02/17 06:01:16;;;;;;;118.18;64.38;;;;;;;2.88;74.67;99858.84;5047401;28;20088;-22
2022/02/17 06:03:41;;;;;;;136.30;70.00;;;;;;;2.16;77.33;99836.16;5047286;28;20033;-21
2022/02/17 06:06:07;;;;;;;161.98;83.38;;;;;;;1.74;79.66;99834.66;5047247;28;20044;-20
2022/02/17 06:08:32;;;;;;;152.80;79.90;;;;;;;1.72;80.81;99862.91;5047369;28;20641;-22
2022/02/17 06:10:58;;;;;;;167.98;89.10;;;;;;;1.72;80.77;99850.56;5047494;28;20033;-22
2022/02/17 06:13:24;;;;;;;245.73;126.80;;;;;;;1.82;80.46;99855.66;5048582;28;20550;-21
2022/02/17 06:15:49;;;;;;;255.48;134.25;;;;;;;1.74;80.53;99847.78;5017036;28;20037;-21
2022/02/17 06:18:15;;;;;;;289.52;151.95;;;;;;;1.98;78.62;99823.22;5033407;28;20040;-22
2022/02/17 06:20:40;;;;;;;362.27;192.10;;;;;;;2.24;77.42;99836.13;5051209;28;20056;-21
2022/02/17 06:23:06;;;;;;;253.48;124.55;;;;;;;1.77;80.01;99852.69;5051435;28;20515;-22
2022/02/17 06:25:31;;;;;;;217.07;111.68;;;;;;;2.11;79.45;99838.50;5033187;28;20718;-21
2022/02/17 06:28:00;;;;;;;181.15;95.95;;;;;;;2.04;79.17;99842.78;5033271;28;20025;-21
2022/02/17 06:30:25;;;;;;;;;;;;;;;2.20;78.92;99834.84;5051364;28;20071;-21
2022/02/17 06:32:52;;;;;;;131.40;68.65;;;;;;;2.39;78.36;99826.53;5051134;28;19968;-21
2022/02/17 06:35:18;;;;;;;126.53;68.45;;;;;;;2.83;76.64;99842.78;5050763;28;20052;-21
2022/02/17 06:37:44;;;;;;;155.55;77.45;;;;;;;2.47;77.75;99824.84;5050968;28;20036;-22
2022/02/17 06:40:10;;;;;;;212.38;110.65;;;;;;;3.33;75.30;99838.78;5051053;28;20053;-21
2022/02/17 06:42:35;;;;;;;207.18;108.55;;;;;;;3.28;74.71;99820.88;5050575;28;20083;-21
2022/02/17 06:45:01;;;;;;;184.57;102.00;;;;;;;3.53;73.70;99833.84;5032944;28;20443;-21
2022/02/17 06:47:27;;;;;;;191.27;111.80;;;;;;;3.57;74.37;99830.66;5032807;28;20118;-21
2022/02/17 06:49:53;;;;;;;183.65;94.68;;;;;;;3.97;74.43;99828.63;5050634;28;20104;-21
2022/02/17 06:52:18;;;;;;;223.15;124.78;;;;;;;3.67;74.82;99829.59;5051090;28;20040;-22
2022/02/17 06:54:44;;;;;;;146.93;80.22;;;;;;;3.75;75.80;99826.88;5050717;28;20397;-22
2022/02/17 06:57:10;;;;;;;225.73;135.68;;;;;;;3.82;76.12;99819.88;5050505;28;20032;-21
2022/02/17 06:59:36;;;;;;;153.25;87.07;;;;;;;3.99;75.42;99817.91;5050340;28;20618;-21
2022/02/17 07:02:01;;;;;;;218.35;132.50;;;;;;;4.36;74.68;99797.66;5050544;28;20052;-21
2022/02/17 07:04:27;;;;;;;179.32;94.10;;;;;;;4.62;73.67;99807.72;5049908;28;20036;-21
2022/02/17 07:06:52;;;;;;;509.58;271.42;;;;;;;4.71;74.79;99811.88;5050565;28;20574;-21
2022/02/17 07:09:18;;;;;;;182.60;105.88;;;;;;;4.99;73.10;99824.34;5032272;28;20090;-21
2022/02/17 07:11:44;;;;;;;83.93;49.38;;;;;;;4.85;73.60;99822.59;5050459;28;20028;-21
2022/02/17 07:14:10;;;;;;;82.10;44.70;;;;;;;4.59;72.76;99793.03;5032418;28;20033;-21
2022/02/17 07:16:35;;;;;;;77.97;45.22;;;;;;;4.56;73.45;99825.13;5050165;28;20036;-21
2022/02/17 07:19:01;;;;;;;82.63;46.60;;;;;;;4.50;73.04;99831.13;5050174;28;20025;-21
2022/02/17 07:21:27;;;;;;;81.75;44.75;;;;;;;4.27;74.21;99825.16;5032444;28;20043;-21
2022/02/17 07:23:52;;;;;;;82.13;46.83;;;;;;;4.42;74.90;99803.00;5050265;28;20590;-21
2022/02/17 07:26:18;;;;;;;82.22;46.72;;;;;;;4.65;74.29;99786.19;5049686;28;20493;-21
2022/02/17 07:28:44;;;;;;;78.13;45.92;;;;;;;5.02;72.11;99803.63;5049744;28;20033;-21
2022/02/17 07:31:12;;;;;;;76.93;47.35;;;;;;;5.10;71.95;99789.47;5031881;28;20037;-21
2022/02/17 07:33:37;;;;;;;79.13;46.92;;;;;;;5.12;73.03;99803.31;5049959;28;20087;-20
2022/02/17 07:36:03;;;;;;;81.90;46.03;;;;;;;5.02;73.16;99792.25;5049821;28;20417;-22
2022/02/17 07:38:28;;;;;;;77.65;46.33;;;;;;;5.70;72.28;99799.69;5032184;28;20546;-21
2022/02/17 07:40:54;;;;;;;76.82;41.60;;;;;;;5.34;71.73;99790.91;5050107;28;20033;-21
2022/02/17 07:43:19;;;;;;;77.13;44.13;;;;;;;5.01;73.62;99801.19;5049871;28;20055;-21
2022/02/17 07:45:45;;;;;;;80.90;47.08;;;;;;;4.68;75.41;99785.84;5049633;28;20029;-21
2022/02/17 07:48:10;;;;;;;83.45;47.03;;;;;;;5.10;74.29;99807.16;5049487;28;20037;-21
2022/02/17 07:50:36;;;;;;;88.38;48.95;;;;;;;4.85;75.82;99817.31;5049574;28;20033;-21
2022/02/17 07:53:02;;;;;;;91.45;50.45;;;;;;;5.11;75.75;99822.84;5049587;28;20025;-21
2022/02/17 07:55:28;;;;;;;82.82;49.15;;;;;;;5.16;75.66;99819.63;5031792;28;20056;-21
2022/02/17 07:57:54;;;;;;;79.95;47.50;;;;;;;5.54;75.12;99814.88;5031525;28;20036;-22
2022/02/17 08:00:19;;;;;;;80.25;48.45;;;;;;;5.76;72.57;99825.38;5049486;28;20056;-21
2022/02/17 08:02:45;;;;;;;80.05;49.67;;;;;;;5.88;73.78;99834.41;5049084;28;20036;-21
2022/02/17 08:05:12;;;;;;;77.20;47.25;;;;;;;5.82;72.80;99830.75;5049147;28;20036;-21
2022/02/17 08:07:38;;;;;;;80.30;47.43;;;;;;;5.89;74.06;99830.78;5049564;28;20111;-21
2022/02/17 08:10:05;;;;;;;80.07;45.80;;;;;;;6.20;71.37;99826.91;5049289;28;20066;-21
2022/02/17 08:12:30;;;;;;;80.38;48.00;;;;;;;6.68;72.29;99840.16;5049002;28;20107;-21
2022/02/17 08:14:58;;;;;;;75.03;42.15;;;;;;;6.24;72.07;99838.75;5049047;28;20036;-22
2022/02/17 08:17:23;;;;;;;70.25;41.72;;;;;;;6.42;71.63;99824.97;5049385;28;20061;-21
2022/02/17 08:19:49;;;;;;;87.03;48.78;;;;;;;7.09;72.88;99831.28;5048988;28;20029;-22
2022/02/17 08:22:14;;;;;;;72.28;41.22;;;;;;;7.10;70.19;99830.25;5049069;28;20041;-21
2022/02/17 08:24:40;;;;;;;80.25;45.33;;;;;;;7.13;73.47;99821.91;5048932;28;20033;-21
2022/02/17 08:27:05;;;;;;;71.55;41.63;;;;;;;7.30;70.68;99801.13;5048974;28;20032;-21
2022/02/17 08:29:34;;;;;;;75.35;42.25;;;;;;;7.31;71.47;99807.22;5048947;28;20032;-21
2022/02/17 08:31:59;;;;;;;78.97;45.08;;;;;;;7.56;70.97;99807.41;5048503;28;20050;-21
2022/02/17 08:34:25;;;;;;;72.60;41.22;;;;;;;7.54;69.29;99807.66;5048682;28;20504;-22
2022/02/17 08:36:52;;;;;;;75.40;42.80;;;;;;;7.91;70.94;99807.19;5047593;28;20033;-21
2022/02/17 08:39:17;;;;;;;134.73;65.03;;;;;;;8.02;68.93;99799.38;5048626;28;20025;-22
2022/02/17 08:41:43;;;;;;;78.30;43.17;;;;;;;8.37;67.55;99812.34;5048615;28;20033;-21
2022/02/17 08:44:08;;;;;;;68.57;38.97;;;;;;;8.48;67.40;99815.41;5047754;28;20024;-21
2022/02/17 08:46:34;;;;;;;69.07;39.15;;;;;;;8.96;65.62;99767.06;5048086;28;20504;-21
2022/02/17 08:48:59;;;;;;;68.25;38.78;;;;;;;9.31;64.96;99801.19;5048585;28;20025;-21
2022/02/17 08:51:29;;;;;;;65.43;38.15;;;;;;;9.15;65.34;99808.66;5048911;28;20032;-21
2022/02/17 08:53:55;;;;;;;66.28;38.28;;;;;;;9.19;66.73;99809.91;5048266;28;20389;-21
2022/02/17 08:56:20;;;;;;;60.28;36.67;;;;;;;9.99;64.89;99822.50;5048801;28;20040;-21
2022/02/17 08:58:45;;;;;;;76.60;43.85;;;;;;;9.56;64.18;99810.00;5048085;28;20112;-21
2022/02/17 09:01:11;;;;;;;64.63;38.47;;;;;;;9.96;62.01;99809.59;5030575;28;20182;-21
2022/02/17 09:03:36;;;;;;;58.30;34.75;;;;;;;10.49;59.54;99813.56;5048450;28;20036;-21
2022/02/17 09:06:02;;;;;;;66.07;36.63;;;;;;;10.24;60.07;99800.31;5048129;28;20040;-21
2022/02/17 09:08:27;;;;;;;56.70;35.95;;;;;;;10.55;61.33;99801.19;5047928;28;20024;-21
2022/02/17 09:10:56;;;;;;;57.35;33.08;;;;;;;9.49;62.44;99798.59;5048037;28;20032;-22
2022/02/17 09:13:22;;;;;;;56.95;34.28;;;;;;;9.57;64.33;99787.66;5048023;28;20056;-21
2022/02/17 09:15:47;;;;;;;55.75;33.70;;;;;;;10.41;63.43;99798.66;5047801;28;20385;-21
2022/02/17 09:18:12;;;;;;;59.38;35.78;;;;;;;11.08;60.04;99788.97;5047861;28;20025;-21
2022/02/17 09:20:39;;;;;;;52.10;33.58;;;;;;;10.94;59.49;99786.47;5047794;28;20787;-21
2022/02/17 09:23:05;;;;;;;63.13;36.80;;;;;;;10.60;61.32;99756.81;5048115;28;20492;-21
2022/02/17 09:25:31;;;;;;;53.72;33.38;;;;;;;10.44;60.47;99763.59;5047821;28;20755;-21
2022/02/17 09:27:57;;;;;;;54.72;33.78;;;;;;;10.35;61.16;99759.59;5047781;28;20063;-21
2022/02/17 09:30:22;;;;;;;54.55;34.28;;;;;;;10.45;61.60;99770.53;5047867;28;20029;-21
2022/02/17 09:32:48;;;;;;;54.00;34.83;;;;;;;10.61;60.12;99747.75;5047553;28;20041;-21
2022/02/17 09:35:14;;;;;;;63.75;38.50;;;;;;;11.17;60.96;99735.00;5047834;28;20036;-21
2022/02/17 09:37:39;;;;;;;57.80;35.60;;;;;;;12.01;57.19;99741.94;5047809;28;20440;-21
2022/02/17 09:40:06;;;;;;;55.70;35.42;;;;;;;12.00;58.03;99743.81;5047765;28;20028;-21
2022/02/17 09:42:40;;;;;;;51.85;32.75;;;;;;;11.32;56.90;99725.72;5047144;28;20617;-21
2022/02/17 09:45:08;;;;;;;62.72;37.65;;;;;;;11.56;57.59;99721.19;5047876;28;20182;-21
2022/02/17 09:47:34;;;;;;;55.40;33.90;;;;;;;11.75;58.09;99727.19;5029874;28;20154;-21
2022/02/17 09:49:59;;;;;;;58.92;35.72;;;;;;;11.92;58.92;99720.13;5029546;28;20518;-21
2022/02/17 09:52:25;;;;;;;54.80;34.03;;;;;;;11.78;56.50;99700.03;5029453;28;20036;-20
2022/02/17 09:54:51;;;;;;;52.63;34.55;;;;;;;11.70;57.08;99705.72;5047506;28;20419;-21
2022/02/17 09:57:23;;;;;;;58.92;34.60;;;;;;;11.80;58.09;99676.56;5047286;28;20463;-21
2022/02/17 09:59:48;;;;;;;54.20;33.38;;;;;;;12.43;55.12;99689.00;5047514;28;20164;-21
2022/02/17 10:02:24;;;;;;;51.92;32.35;;;;;;;12.86;54.97;99690.28;5047612;28;20041;-21
2022/02/17 10:04:56;;;;;;;54.88;34.30;;;;;;;12.63;55.98;99669.03;5030074;28;20044;-20
2022/02/17 10:07:32;;;;;;;51.40;33.47;;;;;;;13.09;54.34;99661.72;5029993;28;20037;-22
2022/02/17 10:10:05;;;;;;;58.92;35.65;;;;;;;13.35;53.40;99664.81;5047187;28;20033;-21
2022/02/17 10:12:52;;;;;;;51.63;33.42;;;;;;;13.09;52.81;99648.34;5029359;28;20021;-20
2022/02/17 10:15:34;;;;;;;51.25;32.95;;;;;;;12.83;54.41;99642.63;5047156;28;20420;-21
2022/02/17 10:18:18;;;;;;;52.90;34.15;;;;;;;13.38;52.67;99629.47;5046965;28;20052;-21
2022/02/17 10:21:02;;;;;;;56.65;35.28;;;;;;;13.93;51.39;99636.56;5047333;28;20033;-21
2022/02/17 10:23:30;;;;;;;50.67;34.45;;;;;;;14.58;51.22;99620.59;5047332;28;20032;-21
2022/02/17 10:26:13;;;;;;;48.15;32.13;;;;;;;14.63;50.28;99617.97;5047115;28;20079;-21
2022/02/17 10:28:40;;;;;;;47.53;33.38;;;;;;;14.85;51.62;99616.00;5046812;28;20121;-21
2022/02/17 10:31:06;;;;;;;47.85;32.15;;;;;;;15.17;48.22;99590.94;5047096;28;20025;-21
2022/02/17 10:33:39;;;;;;;46.80;32.20;;;;;;;15.01;49.39;99576.59;5047275;28;20072;-20
2022/02/17 10:36:05;;;;;;;46.95;30.73;;;;;;;15.34;49.18;99573.81;5046837;28;20041;-22
2022/02/17 10:38:30;;;;;;;44.13;29.85;;;;;;;15.67;45.46;99561.81;5046855;28;20527;-21
2022/02/17 10:40:55;;;;;;;50.60;32.90;;;;;;;15.73;46.04;99565.38;5046698;28;20091;-21
2022/02/17 10:43:27;;;;;;;46.15;30.60;;;;;;;14.86;47.82;99537.06;5047095;28;20032;-21
2022/02/17 10:45:52;;;;;;;44.33;28.95;;;;;;;14.74;48.43;99549.88;5047470;28;20045;-21
2022/02/17 10:48:24;;;;;;;40.95;27.20;;;;;;;14.65;47.77;99540.69;5047215;28;20541;-21
2022/02/17 10:51:09;;;;;;;41.50;27.98;;;;;;;14.80;48.65;99540.78;5046925;28;20036;-21
2022/02/17 10:53:40;;;;;;;42.95;28.75;;;;;;;15.05;48.98;99528.56;5046543;28;20025;-21
2022/02/17 10:56:07;;;;;;;38.45;27.10;;;;;;;14.77;48.13;99527.06;5046924;28;20431;-21
2022/02/17 10:58:36;;;;;;;40.88;27.13;;;;;;;14.98;46.66;99511.88;5046775;28;20037;-21
2022/02/17 11:01:06;;;;;;;39.17;27.17;;;;;;;15.61;46.16;99515.34;5027346;28;20087;-20
2022/02/17 11:03:33;;;;;;;43.75;30.30;;;;;;;15.90;45.78;99506.00;5030451;28;20102;-22
2022/02/17 11:06:02;;;;;;;38.95;27.95;;;;;;;15.92;45.79;99503.84;5030482;28;20041;-21
2022/02/17 11:08:28;;;;;;;43.88;28.17;;;;;;;15.47;46.05;99481.97;5030478;28;20838;-21
2022/02/17 11:10:53;;;;;;;44.00;27.02;;;;;;;15.54;45.88;99493.25;5030656;28;20033;-21
2022/02/17 11:13:20;;;;;;;42.50;26.80;;;;;;;16.41;45.26;99490.66;5030345;28;20037;-21
2022/02/17 11:15:46;;;;;;;40.45;26.73;;;;;;;16.39;44.59;99492.81;5030510;28;20037;-21
2022/02/17 11:18:12;;;;;;;44.20;27.98;;;;;;;16.86;44.00;99488.16;5030100;28;20083;-21